Time;durP1;ratioP1;P1;durP2;ratioP2;P2;SDS_P1;SDS_P2;PMS_P1;PMS_P2;Temp;Humidity;BMP_temperature;BMP_pressure;BME280_temperature;BME280_humidity;BME280_pressure;Samples;Min_cycle;Max_cycle;Signal;HPM_P1;HPM_P2
2021/04/19 00:00:45;;;;;;;21.27;11.00;;;;;;;9.10;67.82;100575.05;126284;1099;104175;-78
2021/04/19 00:03:20;;;;;;;20.70;11.70;;;;;;;9.08;67.55;100572.36;126266;1099;104570;-78
2021/04/19 00:05:49;;;;;;;23.17;12.37;;;;;;;9.10;67.64;100577.66;126287;1099;104261;-77
2021/04/19 00:08:18;;;;;;;22.47;12.67;;;;;;;9.09;68.02;100570.66;126233;1099;104181;-78
2021/04/19 00:10:47;;;;;;;22.63;12.20;;;;;;;9.07;67.77;100573.20;126274;1099;104195;-77
2021/04/19 00:13:16;;;;;;;22.03;12.40;;;;;;;9.05;67.61;100574.84;126272;1099;104283;-77
2021/04/19 00:15:45;;;;;;;23.03;13.13;;;;;;;9.04;68.10;100577.40;126238;1098;104268;-77
2021/04/19 00:18:15;;;;;;;24.23;12.80;;;;;;;9.02;67.83;100568.59;126253;1099;104211;-77
2021/04/19 00:20:44;;;;;;;21.27;11.80;;;;;;;9.02;67.93;100571.21;126245;1099;104579;-77
2021/04/19 00:23:14;;;;;;;22.83;11.77;;;;;;;9.00;68.37;100572.03;126241;1098;104262;-77
2021/04/19 00:25:44;;;;;;;22.90;11.83;;;;;;;9.00;68.12;100572.03;126222;1099;104162;-78
2021/04/19 00:28:13;;;;;;;20.80;11.77;;;;;;;8.99;68.14;100571.96;126297;1097;104189;-79
2021/04/19 00:30:43;;;;;;;22.63;12.27;;;;;;;8.98;67.93;100567.58;126260;1099;105415;-78
2021/04/19 00:33:12;;;;;;;21.57;11.50;;;;;;;8.99;68.11;100567.64;126247;1099;104274;-78
2021/04/19 00:35:41;;;;;;;24.53;12.87;;;;;;;9.00;68.24;100560.67;126198;1099;104294;-78
2021/04/19 00:38:10;;;;;;;25.17;13.60;;;;;;;9.01;68.87;100565.09;126303;1099;104261;-77
2021/04/19 00:40:41;;;;;;;22.43;12.87;;;;;;;8.98;68.86;100568.46;126264;1099;104159;-77
2021/04/19 00:43:10;;;;;;;21.77;12.03;;;;;;;8.97;68.76;100555.31;126273;1099;104277;-77
2021/04/19 00:45:40;;;;;;;23.03;12.07;;;;;;;8.95;68.36;100563.09;126170;1099;104195;-78
2021/04/19 00:48:10;;;;;;;23.93;13.17;;;;;;;8.95;68.46;100567.45;126278;1099;104165;-78
2021/04/19 00:50:39;;;;;;;21.17;11.67;;;;;;;8.96;68.43;100574.45;126281;1098;104793;-78
2021/04/19 00:53:07;;;;;;;22.73;12.60;;;;;;;8.97;68.77;100561.42;126290;1099;104131;-78
2021/04/19 00:55:37;;;;;;;23.43;12.73;;;;;;;8.97;68.80;100566.66;126226;1099;104281;-77
2021/04/19 00:58:06;;;;;;;24.27;13.00;;;;;;;8.95;68.43;100556.98;126216;1099;104469;-78
2021/04/19 01:00:36;;;;;;;24.03;13.07;;;;;;;8.93;68.72;100556.03;126302;1099;104272;-77
2021/04/19 01:03:06;;;;;;;22.00;12.77;;;;;;;8.90;69.10;100554.16;126270;1099;104204;-77
2021/04/19 01:05:39;;;;;;;22.63;12.57;;;;;;;8.89;69.18;100554.98;126245;1099;104165;-77
2021/04/19 01:08:09;;;;;;;21.52;12.90;;;;;;;8.90;68.95;100548.05;126320;1099;118827;-77
2021/04/19 01:10:39;;;;;;;25.73;13.10;;;;;;;8.88;69.08;100553.21;126232;1099;104209;-78
2021/04/19 01:13:10;;;;;;;22.27;12.73;;;;;;;8.90;69.48;100548.92;126241;1099;104136;-78
2021/04/19 01:15:40;;;;;;;22.10;12.57;;;;;;;8.89;69.42;100547.12;126258;1099;104274;-77
2021/04/19 01:18:09;;;;;;;22.60;12.57;;;;;;;8.91;69.62;100548.11;126206;1099;104149;-78
2021/04/19 01:20:40;;;;;;;23.10;12.97;;;;;;;8.93;69.01;100548.17;126211;1099;104130;-78
2021/04/19 01:23:11;;;;;;;21.73;12.10;;;;;;;8.95;69.54;100547.39;126215;1099;104140;-79
2021/04/19 01:25:40;;;;;;;23.73;12.67;;;;;;;8.96;69.72;100548.27;126288;1099;104175;-77
2021/04/19 01:28:10;;;;;;;23.83;13.27;;;;;;;8.98;69.56;100539.67;126231;1099;104139;-77
2021/04/19 01:30:44;;;;;;;23.23;13.37;;;;;;;9.04;69.32;100540.75;126236;1099;104297;-78
2021/04/19 01:33:14;;;;;;;22.80;13.50;;;;;;;9.07;69.64;100536.56;126274;1099;104149;-77
2021/04/19 01:35:43;;;;;;;24.07;13.27;;;;;;;9.08;69.29;100538.33;126226;1099;104220;-78
2021/04/19 01:38:16;;;;;;;24.43;13.60;;;;;;;9.05;69.78;100546.05;126203;1099;104149;-77
2021/04/19 01:40:46;;;;;;;25.00;13.63;;;;;;;8.98;69.65;100541.41;126301;1099;104265;-77
2021/04/19 01:43:16;;;;;;;21.63;12.47;;;;;;;8.93;69.79;100556.03;126236;1099;104139;-78
2021/04/19 01:45:53;;;;;;;24.70;13.50;;;;;;;8.88;69.98;100545.36;126296;1099;104311;-78
2021/04/19 01:48:23;;;;;;;21.63;12.40;;;;;;;8.87;69.74;100540.06;126157;1099;104280;-77
2021/04/19 01:50:54;;;;;;;22.97;12.93;;;;;;;8.86;69.79;100546.99;126264;1099;104201;-77
2021/04/19 01:53:23;;;;;;;25.73;12.93;;;;;;;8.84;69.78;100542.55;126270;1099;104140;-77
2021/04/19 01:55:53;;;;;;;24.17;12.47;;;;;;;8.83;69.96;100536.39;126266;1099;105287;-77
2021/04/19 01:58:25;;;;;;;24.60;13.63;;;;;;;8.79;70.16;100539.73;126055;1099;102424;-77
2021/04/19 02:00:57;;;;;;;23.37;13.27;;;;;;;8.75;70.13;100545.64;126069;1099;104310;-77
2021/04/19 02:03:52;;;;;;;24.47;14.00;;;;;;;8.69;70.28;100540.14;126185;1099;104150;-77
2021/04/19 02:06:43;;;;;;;23.87;13.70;;;;;;;8.66;70.41;100542.63;126210;1099;104137;-78
2021/04/19 02:09:20;;;;;;;24.97;13.33;;;;;;;8.64;70.21;100546.05;126246;1099;104153;-77
2021/04/19 02:11:58;;;;;;;24.00;12.70;;;;;;;8.63;70.50;100536.44;126249;1099;104139;-77
2021/04/19 02:14:35;;;;;;;23.30;12.80;;;;;;;8.65;70.73;100536.50;126217;1099;104236;-78
2021/04/19 02:17:20;;;;;;;24.00;13.33;;;;;;;8.66;70.34;100538.27;126275;1099;104238;-77
2021/04/19 02:19:58;;;;;;;24.73;13.07;;;;;;;8.67;70.39;100532.22;126177;1099;112752;-78
2021/04/19 02:22:35;;;;;;;21.57;12.57;;;;;;;8.67;70.04;100536.58;126269;1099;104152;-77
2021/04/19 02:25:12;;;;;;;23.53;13.13;;;;;;;8.68;70.53;100530.48;126307;1099;104316;-78
2021/04/19 02:27:46;;;;;;;22.93;12.70;;;;;;;8.68;70.40;100535.72;126232;1098;104139;-77
2021/04/19 02:30:18;;;;;;;23.57;12.95;;;;;;;8.69;70.52;100537.52;126269;1099;104235;-77
2021/04/19 02:32:52;;;;;;;25.10;14.10;;;;;;;8.67;70.79;100545.30;126212;1099;104201;-78
2021/04/19 02:35:25;;;;;;;26.40;14.33;;;;;;;8.65;70.64;100544.35;126235;1099;104201;-77
2021/04/19 02:38:03;;;;;;;25.00;13.87;;;;;;;8.64;70.68;100540.82;126186;1099;104269;-78
2021/04/19 02:40:36;;;;;;;22.20;12.30;;;;;;;8.67;71.10;100536.58;126194;1099;104146;-78
2021/04/19 02:43:08;;;;;;;22.73;12.30;;;;;;;8.69;71.12;100534.91;126225;1099;104171;-78
2021/04/19 02:45:42;;;;;;;21.53;12.07;;;;;;;8.71;70.40;100528.02;126224;1099;104171;-77
2021/04/19 02:48:22;;;;;;;22.97;12.43;;;;;;;8.75;71.01;100535.17;126138;1099;104206;-77
2021/04/19 02:51:00;;;;;;;23.00;12.27;;;;;;;8.78;70.96;100532.69;126229;1099;104361;-77
2021/04/19 02:53:30;;;;;;;20.80;11.80;;;;;;;8.80;71.24;100531.03;126170;1099;104252;-77
2021/04/19 02:56:01;;;;;;;24.60;13.17;;;;;;;8.81;70.96;100533.71;126212;1099;104245;-77
2021/04/19 02:58:43;;;;;;;22.70;13.33;;;;;;;8.82;70.75;100537.24;126145;1099;104159;-77
2021/04/19 03:01:23;;;;;;;24.50;14.10;;;;;;;8.81;70.93;100532.83;126219;1099;104287;-77
2021/04/19 03:04:01;;;;;;;25.25;13.65;;;;;;;8.84;71.34;100538.20;126161;1098;104120;-77
2021/04/19 03:06:31;;;;;;;24.43;13.17;;;;;;;8.85;70.57;100534.76;126165;1099;104264;-77
2021/04/19 03:09:05;;;;;;;23.40;13.47;;;;;;;8.89;71.33;100527.92;126092;1099;102118;-78
2021/04/19 03:11:37;;;;;;;21.53;11.90;;;;;;;8.89;71.18;100531.42;126002;1099;104293;-77
2021/04/19 03:14:10;;;;;;;24.10;12.40;;;;;;;8.87;71.25;100532.20;126238;1099;104191;-77
2021/04/19 03:16:51;;;;;;;23.10;13.00;;;;;;;8.84;70.77;100530.34;126044;1099;104172;-78
2021/04/19 03:19:25;;;;;;;23.30;13.07;;;;;;;8.84;71.15;100532.08;125924;1099;104312;-78
2021/04/19 03:21:54;;;;;;;;;;;;;;;8.86;70.93;100531.30;126049;1099;104198;-77
2021/04/19 03:24:26;;;;;;;22.80;13.50;;;;;;;8.84;71.32;100525.11;126065;1099;103973;-77
2021/04/19 03:27:07;;;;;;;22.60;12.60;;;;;;;8.85;71.24;100534.76;126129;1099;104166;-78
2021/04/19 03:29:47;;;;;;;25.03;12.83;;;;;;;8.88;70.84;100527.05;126077;1098;104193;-77
2021/04/19 03:32:28;;;;;;;22.70;13.40;;;;;;;8.88;71.44;100529.66;126136;1099;104283;-77
2021/04/19 03:35:07;;;;;;;25.43;14.10;;;;;;;8.92;71.75;100530.67;126256;1099;104175;-76
2021/04/19 03:37:40;;;;;;;26.87;14.50;;;;;;;8.96;71.36;100537.80;126144;1099;104137;-76
2021/04/19 03:40:14;;;;;;;25.30;14.80;;;;;;;8.96;71.46;100524.72;126138;1099;102969;-77
2021/04/19 03:42:49;;;;;;;27.00;13.90;;;;;;;8.97;71.35;100535.25;126012;1099;104156;-77
2021/04/19 03:45:24;;;;;;;23.87;13.37;;;;;;;8.96;71.06;100528.25;126121;1099;104864;-77
2021/04/19 03:48:07;;;;;;;;;;;;;;;8.96;71.58;100528.25;126220;1099;104160;-77
2021/04/19 03:50:49;;;;;;;23.90;13.73;;;;;;;8.95;71.51;100534.30;126189;1099;104210;-78
2021/04/19 03:53:20;;;;;;;23.03;12.80;;;;;;;8.95;71.42;100542.16;126169;1099;104139;-78
2021/04/19 03:55:49;;;;;;;23.17;12.47;;;;;;;8.96;71.23;100537.80;125984;1099;104136;-78
2021/04/19 03:58:21;;;;;;;22.47;13.10;;;;;;;8.98;71.83;100549.26;126016;1099;104290;-77
2021/04/19 04:00:53;;;;;;;25.40;13.00;;;;;;;8.99;71.62;100544.09;126015;1099;104198;-76
2021/04/19 04:03:45;;;;;;;24.60;13.63;;;;;;;8.98;71.26;100542.29;126043;1099;104159;-76
2021/04/19 04:06:20;;;;;;;23.03;12.67;;;;;;;9.01;71.31;100541.53;126051;1099;104265;-76
2021/04/19 04:08:52;;;;;;;24.03;13.17;;;;;;;9.02;72.07;100543.30;126149;1098;104309;-76
2021/04/19 04:11:22;;;;;;;24.30;13.77;;;;;;;9.03;71.96;100544.22;126161;1099;104201;-77
2021/04/19 04:13:58;;;;;;;20.80;11.53;;;;;;;9.03;71.81;100549.45;126117;1099;104165;-77
2021/04/19 04:16:28;;;;;;;24.53;12.53;;;;;;;9.04;71.77;100543.37;126048;1099;104277;-78
2021/04/19 04:19:09;;;;;;;22.33;12.43;;;;;;;9.06;71.41;100544.35;126029;1099;104197;-79
2021/04/19 04:21:46;;;;;;;22.77;12.97;;;;;;;9.05;71.56;100548.67;126122;1099;104307;-79
2021/04/19 04:24:32;;;;;;;23.80;12.97;;;;;;;9.05;72.02;100546.05;126257;1099;104133;-79
2021/04/19 04:27:01;;;;;;;22.77;12.87;;;;;;;9.04;71.34;100541.67;126083;1099;104261;-79
2021/04/19 04:29:30;;;;;;;21.47;12.53;;;;;;;9.02;71.47;100545.03;125884;1099;104201;-79
2021/04/19 04:32:15;;;;;;;23.93;13.20;;;;;;;9.01;72.17;100544.16;125995;1099;104297;-76
2021/04/19 04:34:45;;;;;;;22.33;12.67;;;;;;;9.02;71.69;100542.42;126042;1099;104288;-78
2021/04/19 04:37:14;;;;;;;23.80;13.23;;;;;;;9.02;71.82;100542.42;126065;1099;104268;-78
2021/04/19 04:39:51;;;;;;;22.30;12.17;;;;;;;9.05;71.70;100532.97;126085;1099;104144;-78
2021/04/19 04:42:23;;;;;;;22.70;12.35;;;;;;;9.05;71.78;100532.08;126061;1099;104201;-78
2021/04/19 04:44:52;;;;;;;24.80;13.37;;;;;;;9.05;71.62;100529.46;126124;1099;104233;-77
2021/04/19 04:47:31;;;;;;;23.50;13.37;;;;;;;9.10;71.71;100530.54;126051;1099;104194;-77
2021/04/19 04:50:09;;;;;;;22.90;12.60;;;;;;;9.14;72.05;100529.85;125882;1099;105081;-77
2021/04/19 04:52:44;;;;;;;24.00;13.00;;;;;;;9.16;71.83;100536.03;125834;1099;104321;-78
2021/04/19 04:55:15;;;;;;;25.33;12.93;;;;;;;9.18;71.86;100540.52;125842;1099;104651;-78
2021/04/19 04:57:46;;;;;;;27.90;13.10;;;;;;;9.21;71.80;100531.91;125956;1099;104194;-78
2021/04/19 05:00:18;;;;;;;23.73;13.87;;;;;;;9.22;72.15;100530.17;125781;1099;104357;-78
2021/04/19 05:02:48;;;;;;;29.33;14.17;;;;;;;9.27;71.79;100540.02;125905;1099;104214;-78
2021/04/19 05:05:18;;;;;;;25.87;13.73;;;;;;;9.31;71.95;100536.67;125844;1099;104168;-78
2021/04/19 05:07:48;;;;;;;22.40;13.03;;;;;;;9.32;72.10;100540.21;125985;1098;104174;-78
2021/04/19 05:10:21;;;;;;;23.70;13.27;;;;;;;9.36;72.20;100544.72;126010;1099;104140;-78
2021/04/19 05:12:53;;;;;;;23.10;13.53;;;;;;;9.39;71.96;100544.85;125879;1099;104200;-78
2021/04/19 05:15:23;;;;;;;24.70;13.50;;;;;;;9.38;72.12;100532.61;125938;1099;104160;-78
2021/04/19 05:17:52;;;;;;;22.53;12.97;;;;;;;9.31;72.51;100523.58;125910;1099;104191;-77
2021/04/19 05:20:21;;;;;;;22.60;12.07;;;;;;;9.31;72.26;100522.70;125963;1099;104225;-78
2021/04/19 05:22:49;;;;;;;21.37;11.73;;;;;;;9.32;72.32;100516.64;125997;1099;104159;-78
2021/04/19 05:25:19;;;;;;;22.63;11.43;;;;;;;9.35;71.97;100511.53;125821;1099;104319;-78
2021/04/19 05:27:50;;;;;;;21.23;12.20;;;;;;;9.39;71.97;100512.54;125883;1099;104162;-78
2021/04/19 05:30:19;;;;;;;21.63;12.70;;;;;;;9.42;72.48;100512.66;125938;1099;104277;-77
2021/04/19 05:32:49;;;;;;;25.27;13.10;;;;;;;9.42;72.16;100518.78;125820;1099;104176;-77
2021/04/19 05:35:20;;;;;;;23.33;13.17;;;;;;;9.43;72.05;100517.97;125812;1099;104175;-76
2021/04/19 05:37:50;;;;;;;21.43;12.67;;;;;;;9.49;72.79;100519.91;125986;1099;104191;-76
2021/04/19 05:40:21;;;;;;;21.97;12.87;;;;;;;9.53;72.91;100524.45;125869;1099;104194;-76
2021/04/19 05:42:50;;;;;;;23.37;13.30;;;;;;;9.59;72.75;100527.33;125803;1098;104172;-76
2021/04/19 05:45:19;;;;;;;21.70;12.33;;;;;;;9.64;72.62;100531.02;125948;1099;104169;-77
2021/04/19 05:47:49;;;;;;;24.53;12.87;;;;;;;9.70;72.71;100533.00;125115;1099;104275;-77
2021/04/19 05:50:22;;;;;;;23.77;12.90;;;;;;;9.80;72.23;100535.16;125083;1099;104223;-76
2021/04/19 05:52:52;;;;;;;23.70;13.47;;;;;;;9.90;72.15;100528.54;125033;1099;104345;-76
2021/04/19 05:55:25;;;;;;;22.20;12.70;;;;;;;10.00;71.95;100527.16;125722;1099;105505;-75
2021/04/19 05:58:01;;;;;;;24.53;13.03;;;;;;;10.07;72.10;100535.31;125617;1099;104318;-74
2021/04/19 06:00:36;;;;;;;26.33;13.57;;;;;;;10.15;72.47;100527.75;125475;1099;104456;-75
2021/04/19 06:03:17;;;;;;;21.97;12.23;;;;;;;10.25;71.88;100521.11;125472;1099;104223;-76
2021/04/19 06:05:58;;;;;;;22.40;12.93;;;;;;;10.33;71.88;100518.80;124950;1099;104559;-77
2021/04/19 06:08:32;;;;;;;24.10;12.97;;;;;;;10.43;72.47;100523.56;125563;1099;104216;-77
2021/04/19 06:11:19;;;;;;;24.83;13.87;;;;;;;10.57;72.26;100513.57;125591;1099;104545;-77
2021/04/19 06:14:01;;;;;;;22.30;13.23;;;;;;;10.73;72.24;100515.88;124852;1102;104184;-77
2021/04/19 06:16:36;;;;;;;23.97;11.93;;;;;;;10.84;72.08;100515.37;125347;1099;102640;-76
2021/04/19 06:19:09;;;;;;;21.30;12.17;;;;;;;10.87;71.99;100512.86;125211;1099;104293;-77
2021/04/19 06:21:39;;;;;;;22.50;12.27;;;;;;;10.95;71.52;100517.55;125743;1099;104297;-77
2021/04/19 06:24:10;;;;;;;22.03;12.60;;;;;;;11.02;71.68;100517.77;125779;1099;104142;-77
2021/04/19 06:26:39;;;;;;;23.10;12.77;;;;;;;11.08;71.92;100524.11;125846;1099;104178;-76
2021/04/19 06:29:09;;;;;;;22.70;12.00;;;;;;;11.13;71.46;100526.89;125919;1098;104319;-77
2021/04/19 06:31:45;;;;;;;21.00;12.05;;;;;;;11.18;71.62;100524.41;125873;1099;104280;-77
2021/04/19 06:34:15;;;;;;;21.70;11.53;;;;;;;11.24;71.85;100515.00;126022;1099;104265;-77
2021/04/19 06:36:46;;;;;;;23.43;12.50;;;;;;;11.31;71.66;100523.96;125774;1099;104169;-77
2021/04/19 06:39:17;;;;;;;23.20;11.93;;;;;;;11.40;71.45;100529.52;125086;1099;104162;-76
2021/04/19 06:41:47;;;;;;;24.70;12.30;;;;;;;11.45;71.58;100521.79;125119;1099;104185;-75
2021/04/19 06:44:16;;;;;;;22.93;12.20;;;;;;;11.53;71.52;100516.78;125663;1099;105800;-76
2021/04/19 06:46:48;;;;;;;25.07;11.97;;;;;;;11.61;71.41;100512.66;125745;1099;104238;-76
2021/04/19 06:49:18;;;;;;;22.30;12.20;;;;;;;11.64;71.25;100518.01;125710;1099;104442;-76
2021/04/19 06:51:47;;;;;;;23.23;12.80;;;;;;;11.72;71.65;100520.88;124992;1099;104306;-76
2021/04/19 06:54:16;;;;;;;24.63;12.23;;;;;;;11.81;71.67;100523.80;125652;1099;104300;-75
2021/04/19 06:56:49;;;;;;;22.93;12.10;;;;;;;11.88;71.47;100520.52;125717;1099;104187;-76
2021/04/19 06:59:20;;;;;;;24.80;12.87;;;;;;;11.98;71.61;100524.35;125273;1099;104172;-77
2021/04/19 07:01:53;;;;;;;23.07;12.77;;;;;;;12.04;71.28;100520.19;125125;1099;104290;-77
2021/04/19 07:04:25;;;;;;;23.80;13.75;;;;;;;12.13;71.26;100522.18;125787;1099;104165;-77
2021/04/19 07:06:56;;;;;;;25.00;13.27;;;;;;;12.22;71.33;100518.95;125905;1099;104207;-76
2021/04/19 07:09:27;;;;;;;22.70;12.57;;;;;;;12.36;71.37;100520.23;125134;1099;104194;-77
2021/04/19 07:11:58;;;;;;;25.53;13.07;;;;;;;12.53;71.41;100518.08;125901;1099;104201;-78
2021/04/19 07:14:29;;;;;;;21.83;11.20;;;;;;;12.73;71.58;100515.08;125908;1099;104274;-77
2021/04/19 07:17:08;;;;;;;21.20;11.73;;;;;;;12.90;71.03;100523.44;125960;1099;104127;-76
2021/04/19 07:19:39;;;;;;;21.20;11.47;;;;;;;13.04;70.62;100516.81;125959;1100;104171;-77
2021/04/19 07:22:09;;;;;;;22.50;12.10;;;;;;;13.19;70.75;100516.30;125832;1099;104153;-75
2021/04/19 07:24:39;;;;;;;20.33;10.50;;;;;;;13.33;70.58;100519.31;125905;1099;104175;-75
2021/04/19 07:27:10;;;;;;;22.33;11.77;;;;;;;13.34;69.66;100515.84;125923;1099;104161;-76
2021/04/19 07:29:40;;;;;;;23.17;11.93;;;;;;;13.33;69.62;100527.22;125971;1099;104385;-75
2021/04/19 07:32:10;;;;;;;21.95;11.90;;;;;;;13.30;70.04;100529.74;125985;1099;104294;-75
2021/04/19 07:34:39;;;;;;;21.73;12.07;;;;;;;13.36;69.81;100534.32;125824;1099;104283;-76
2021/04/19 07:37:12;;;;;;;20.97;11.73;;;;;;;13.37;69.81;100530.81;125971;1099;104168;-76
2021/04/19 07:39:42;;;;;;;20.60;11.43;;;;;;;13.39;69.64;100529.13;125850;1099;104165;-77
2021/04/19 07:42:12;;;;;;;19.17;10.90;;;;;;;13.47;70.53;100520.53;125828;1099;104178;-78
2021/04/19 07:44:44;;;;;;;22.87;12.50;;;;;;;13.53;70.16;100521.55;125778;1099;104275;-78
2021/04/19 07:47:29;;;;;;;22.50;12.10;;;;;;;13.68;70.26;100515.73;125848;1099;104249;-75
2021/04/19 07:50:00;;;;;;;24.80;12.17;;;;;;;13.87;70.38;100512.68;125988;1099;104264;-77
2021/04/19 07:52:30;;;;;;;23.23;12.90;;;;;;;13.99;69.59;100506.77;125971;1099;104133;-76
2021/04/19 07:55:11;;;;;;;23.97;13.47;;;;;;;14.12;69.83;100507.95;125859;1099;104427;-76
2021/04/19 07:57:40;;;;;;;20.60;11.60;;;;;;;14.16;68.90;100500.12;125923;1099;104241;-76
2021/04/19 08:00:21;;;;;;;23.43;11.93;;;;;;;14.27;69.94;100497.67;126006;1099;104172;-76
2021/04/19 08:03:00;;;;;;;23.33;12.00;;;;;;;14.39;69.79;100503.20;125935;1099;104223;-77
2021/04/19 08:05:36;;;;;;;20.63;10.77;;;;;;;14.36;69.36;100502.27;125984;1099;104213;-76
2021/04/19 08:08:07;;;;;;;21.43;9.70;;;;;;;14.28;68.97;100504.75;125947;1099;104689;-76
2021/04/19 08:10:38;;;;;;;22.63;11.27;;;;;;;14.19;69.20;100492.27;126129;1099;104143;-76
2021/04/19 08:13:11;;;;;;;20.43;11.00;;;;;;;14.14;68.66;100499.18;126135;1099;104325;-75
2021/04/19 08:15:41;;;;;;;21.60;11.13;;;;;;;14.00;68.38;100496.25;125903;1099;104195;-78
2021/04/19 08:18:14;;;;;;;20.57;10.80;;;;;;;13.89;69.04;100497.77;126061;1099;104220;-77
2021/04/19 08:20:57;;;;;;;23.12;11.85;;;;;;;13.84;68.47;100502.06;126093;1099;104294;-79
2021/04/19 08:23:37;;;;;;;21.80;11.03;;;;;;;13.78;68.74;100504.56;126019;1096;104171;-78
2021/04/19 08:26:06;;;;;;;21.73;9.83;;;;;;;13.72;68.40;100505.30;125904;1099;104770;-75
2021/04/19 08:28:44;;;;;;;21.93;10.63;;;;;;;13.71;68.77;100502.63;125948;1099;104169;-77
2021/04/19 08:31:15;;;;;;;19.57;10.23;;;;;;;13.75;68.15;100505.37;125853;1099;104296;-76
2021/04/19 08:33:46;;;;;;;20.63;9.90;;;;;;;13.78;68.13;100501.92;125990;1099;104162;-77
2021/04/19 08:36:16;;;;;;;20.17;10.90;;;;;;;13.87;68.74;100498.58;125716;1099;104169;-75
2021/04/19 08:38:47;;;;;;;17.70;9.47;;;;;;;13.94;67.52;100488.20;125613;1099;104340;-74
2021/04/19 08:41:17;;;;;;;21.03;10.23;;;;;;;13.91;67.74;100500.44;125662;1099;104160;-75
2021/04/19 08:43:47;;;;;;;22.13;10.47;;;;;;;13.89;68.22;100489.85;125541;1099;104290;-75
2021/04/19 08:46:17;;;;;;;20.87;10.57;;;;;;;13.99;67.16;100494.48;125620;1099;104217;-74
2021/04/19 08:48:48;;;;;;;21.03;10.33;;;;;;;14.15;67.12;100481.63;125627;1099;104245;-76
2021/04/19 08:51:17;;;;;;;21.53;10.37;;;;;;;14.30;66.97;100481.91;125599;1099;104175;-76
2021/04/19 08:53:46;;;;;;;21.97;10.37;;;;;;;14.42;66.48;100480.39;125647;1099;104216;-74
2021/04/19 08:56:15;;;;;;;22.43;11.47;;;;;;;14.47;65.82;100469.05;125568;1099;104168;-75
2021/04/19 08:58:45;;;;;;;23.13;11.73;;;;;;;14.53;65.99;100468.28;125612;1099;104162;-76
2021/04/19 09:01:18;;;;;;;20.97;10.60;;;;;;;14.72;66.79;100474.83;125559;1099;104169;-76
2021/04/19 09:04:02;;;;;;;21.63;10.67;;;;;;;14.82;66.83;100470.59;125528;1099;104290;-75
2021/04/19 09:06:41;;;;;;;21.07;10.33;;;;;;;14.97;65.65;100465.58;125601;1099;104389;-76
2021/04/19 09:09:14;;;;;;;21.47;10.93;;;;;;;15.02;65.91;100466.56;125587;1099;104175;-76
2021/04/19 09:11:43;;;;;;;24.27;11.40;;;;;;;15.07;66.02;100458.72;125555;1099;104359;-76
2021/04/19 09:14:16;;;;;;;22.40;11.37;;;;;;;15.14;65.29;100454.41;125581;1099;104175;-76
2021/04/19 09:16:47;;;;;;;22.73;11.07;;;;;;;15.21;66.03;100451.89;125572;1099;104213;-77
2021/04/19 09:19:20;;;;;;;22.20;11.10;;;;;;;15.27;65.19;100457.28;125600;1099;104234;-76
2021/04/19 09:21:53;;;;;;;21.70;10.87;;;;;;;15.17;64.47;100451.83;125596;1099;104181;-76
2021/04/19 09:24:25;;;;;;;20.87;10.67;;;;;;;15.08;63.94;100464.03;125608;1099;104169;-77
2021/04/19 09:26:55;;;;;;;21.60;10.53;;;;;;;15.18;65.08;100459.78;125596;1099;104304;-77
2021/04/19 09:29:47;;;;;;;23.20;10.07;;;;;;;15.22;65.47;100458.06;125550;1099;104178;-76
2021/04/19 09:32:29;;;;;;;20.73;9.67;;;;;;;15.16;64.90;100458.88;125602;1099;104146;-77
2021/04/19 09:35:01;;;;;;;21.43;10.77;;;;;;;15.03;65.11;100459.52;125613;1099;104171;-77
2021/04/19 09:37:55;;;;;;;22.27;10.77;;;;;;;14.96;64.84;100457.63;125609;1099;104175;-77
2021/04/19 09:40:24;;;;;;;24.07;10.80;;;;;;;14.94;65.17;100459.36;125625;1099;104293;-77
2021/04/19 09:43:07;;;;;;;22.57;10.73;;;;;;;14.84;64.40;100459.20;125489;1099;104178;-76
2021/04/19 09:45:59;;;;;;;20.70;9.83;;;;;;;14.66;64.47;100451.86;125605;1099;104172;-75
2021/04/19 09:48:54;;;;;;;22.80;10.23;;;;;;;14.46;64.15;100456.73;125508;1099;104236;-76
2021/04/19 09:51:24;;;;;;;22.40;10.03;;;;;;;14.29;63.95;100455.48;125581;1099;104306;-75
2021/04/19 09:54:00;;;;;;;24.13;10.03;;;;;;;14.15;63.74;100457.87;125604;1099;104150;-75
2021/04/19 09:56:32;;;;;;;21.43;10.03;;;;;;;14.07;63.71;100456.80;127147;1099;101664;-74
2021/04/19 09:59:02;;;;;;;21.20;10.13;;;;;;;14.00;63.69;100459.31;126229;1098;104284;-74
2021/04/19 10:01:34;;;;;;;24.33;10.80;;;;;;;13.93;64.46;100453.87;125531;1099;104271;-76
2021/04/19 10:04:04;;;;;;;25.63;11.67;;;;;;;13.88;64.43;100450.25;125598;1099;104184;-75
2021/04/19 10:06:40;;;;;;;25.40;11.60;;;;;;;13.76;64.06;100451.78;125578;1099;104162;-74
2021/04/19 10:09:12;;;;;;;23.30;11.90;;;;;;;13.63;63.43;100458.53;125671;1099;108428;-74
2021/04/19 10:11:46;;;;;;;24.20;11.73;;;;;;;13.56;63.93;100453.97;125534;1099;104174;-74
2021/04/19 10:14:18;;;;;;;23.83;10.60;;;;;;;13.44;63.83;100458.95;125506;1099;104181;-74
2021/04/19 10:16:49;;;;;;;20.23;10.20;;;;;;;13.28;63.13;100455.92;125576;1099;104197;-75
2021/04/19 10:19:25;;;;;;;20.10;10.77;;;;;;;13.14;63.58;100467.87;125599;1099;104172;-75
2021/04/19 10:22:00;;;;;;;21.67;11.60;;;;;;;13.04;63.99;100466.77;125541;1099;104264;-75
2021/04/19 10:24:29;;;;;;;21.43;10.90;;;;;;;13.03;64.11;100466.73;126457;1099;102388;-76
2021/04/19 10:27:00;;;;;;;20.97;10.53;;;;;;;12.97;63.77;100456.03;125588;1099;104174;-75
2021/04/19 10:29:28;;;;;;;20.80;10.60;;;;;;;12.93;64.02;100457.67;125546;1097;104641;-75
2021/04/19 10:31:59;;;;;;;23.13;10.87;;;;;;;12.93;63.66;100461.22;125556;1099;104359;-74
2021/04/19 10:34:31;;;;;;;20.30;10.57;;;;;;;12.97;63.78;100461.30;125457;1099;104270;-76
2021/04/19 10:37:02;;;;;;;21.73;10.10;;;;;;;13.03;64.05;100456.19;125567;1099;104265;-76
2021/04/19 10:39:34;;;;;;;21.37;10.27;;;;;;;13.02;64.13;100459.66;125553;1099;104271;-75
2021/04/19 10:42:05;;;;;;;20.47;10.97;;;;;;;12.99;64.12;100459.59;125565;1099;104277;-75
2021/04/19 10:44:36;;;;;;;21.00;10.90;;;;;;;12.94;63.44;100462.98;126000;1099;104235;-76
2021/04/19 10:47:06;;;;;;;17.63;9.13;;;;;;;12.90;63.85;100454.97;125567;1099;104174;-76
2021/04/19 10:49:35;;;;;;;19.83;9.83;;;;;;;12.88;63.70;100447.02;125553;1099;104267;-75
2021/04/19 10:52:07;;;;;;;19.90;10.03;;;;;;;12.85;63.92;100452.22;125579;1099;104175;-77
2021/04/19 10:54:38;;;;;;;20.30;9.77;;;;;;;12.84;63.49;100442.55;125925;1099;102408;-76
2021/04/19 10:57:08;;;;;;;20.30;9.70;;;;;;;12.82;63.50;100445.98;125627;1099;104289;-75
2021/04/19 10:59:38;;;;;;;19.10;9.27;;;;;;;12.79;63.73;100440.64;125550;1099;104289;-75
2021/04/19 11:02:09;;;;;;;20.93;9.83;;;;;;;12.75;63.79;100439.69;125571;1099;104210;-76
2021/04/19 11:04:42;;;;;;;21.20;9.00;;;;;;;12.74;63.50;100440.52;125626;1099;104166;-76
2021/04/19 11:07:27;;;;;;;22.73;10.30;;;;;;;12.76;63.71;100436.17;125579;1099;102231;-77
2021/04/19 11:10:15;;;;;;;22.25;10.23;;;;;;;12.82;63.55;100430.19;125501;1099;104159;-78
2021/04/19 11:13:05;;;;;;;20.10;9.80;;;;;;;12.86;63.05;100430.30;125561;1099;104361;-77
2021/04/19 11:15:37;;;;;;;21.13;10.60;;;;;;;12.92;63.56;100438.36;125619;1099;104779;-76
2021/04/19 11:18:20;;;;;;;24.17;12.57;;;;;;;12.94;63.15;100427.87;125628;1099;104175;-76
2021/04/19 11:20:50;;;;;;;25.37;12.83;;;;;;;12.98;63.04;100436.72;125468;1099;105568;-75
2021/04/19 11:23:29;;;;;;;26.87;14.10;;;;;;;12.99;63.52;100433.25;125566;1099;104337;-75
2021/04/19 11:26:11;;;;;;;26.60;14.10;;;;;;;13.02;63.55;100428.94;125497;1099;104169;-74